createdAt,value
2022-09-12T00:00:23.222Z,1.52
2022-09-12T00:02:54.997Z,1.10
2022-09-12T00:05:23.168Z,1.23
2022-09-12T00:07:50.952Z,0.82
2022-09-12T00:10:18.642Z,1.10
2022-09-12T00:12:46.235Z,1.40
2022-09-12T00:15:13.739Z,1.05
2022-09-12T00:17:41.117Z,1.17
2022-09-12T00:20:10.500Z,1.52
2022-09-12T00:22:39.009Z,1.15
2022-09-12T00:25:06.959Z,1.15
2022-09-12T00:27:34.311Z,1.08
2022-09-12T00:30:01.800Z,1.35
2022-09-12T00:32:29.282Z,1.23
2022-09-12T00:34:56.648Z,1.20
2022-09-12T00:37:24.093Z,1.10
2022-09-12T00:39:51.665Z,1.10
2022-09-12T00:42:19.136Z,1.17
2022-09-12T00:44:50.360Z,1.20
2022-09-12T00:47:28.747Z,1.17
2022-09-12T00:50:11.386Z,1.00
2022-09-12T00:52:47.419Z,1.23
2022-09-12T00:55:27.915Z,1.00
2022-09-12T00:58:03.548Z,1.15
2022-09-12T01:00:31.185Z,1.30
2022-09-12T01:03:11.104Z,1.33
2022-09-12T01:05:45.033Z,1.27
2022-09-12T01:08:12.806Z,1.33
2022-09-12T01:10:41.894Z,1.30
2022-09-12T01:13:11.087Z,1.63
2022-09-12T01:15:40.208Z,1.25
2022-09-12T01:18:28.802Z,1.20
2022-09-12T01:21:15.197Z,1.30
2022-09-12T01:24:00.631Z,1.20
2022-09-12T01:26:49.437Z,1.45
2022-09-12T01:29:43.564Z,1.45
2022-09-12T01:32:32.712Z,1.80
2022-09-12T01:35:12.633Z,1.38
2022-09-12T01:38:15.175Z,1.10
2022-09-12T01:40:49.409Z,1.42
2022-09-12T01:43:27.596Z,1.20
2022-09-12T01:46:02.295Z,1.30
2022-09-12T01:49:02.408Z,1.55
2022-09-12T01:51:38.544Z,1.63
2022-09-12T01:54:14.343Z,1.75
2022-09-12T01:56:43.849Z,1.35
2022-09-12T01:59:20.786Z,1.50
2022-09-12T02:02:01.413Z,1.40
2022-09-12T02:04:58.313Z,1.48
2022-09-12T02:08:03.061Z,1.40
2022-09-12T02:10:34.796Z,1.40
2022-09-12T02:13:27.624Z,1.48
2022-09-12T02:16:03.701Z,1.35
2022-09-12T02:18:33.188Z,1.38
2022-09-12T02:21:02.410Z,1.45
2022-09-12T02:23:32.472Z,1.45
2022-09-12T02:26:11.395Z,1.65
2022-09-12T02:28:43.052Z,1.60
2022-09-12T02:31:13.321Z,1.60
2022-09-12T02:33:58.092Z,1.60
2022-09-12T02:36:50.187Z,1.20
2022-09-12T02:39:20.254Z,1.40
2022-09-12T02:41:51.012Z,0.80
2022-09-12T02:44:18.856Z,1.20
2022-09-12T02:46:54.998Z,1.00
2022-09-12T02:49:23.108Z,0.93
2022-09-12T02:51:51.083Z,1.02
2022-09-12T02:54:20.148Z,1.10
2022-09-12T02:56:47.580Z,0.90
2022-09-12T02:59:21.028Z,0.80
2022-09-12T03:02:06.533Z,0.93
2022-09-12T03:04:52.888Z,0.70
2022-09-12T03:07:38.894Z,0.90
2022-09-12T03:10:28.799Z,0.70
2022-09-12T03:13:06.412Z,0.65
2022-09-12T03:15:51.736Z,0.63
2022-09-12T03:18:37.181Z,0.77
2022-09-12T03:21:37.459Z,0.80
2022-09-12T03:24:11.698Z,0.80
2022-09-12T03:26:51.375Z,0.70
2022-09-12T03:29:20.347Z,0.60
2022-09-12T03:31:53.122Z,0.70
2022-09-12T03:34:22.074Z,0.70
2022-09-12T03:36:49.944Z,0.70
2022-09-12T03:39:18.225Z,0.77
2022-09-12T03:41:45.632Z,0.73
2022-09-12T03:44:12.932Z,0.70
2022-09-12T03:46:40.192Z,0.50
2022-09-12T03:49:07.460Z,0.63
2022-09-12T03:51:34.798Z,1.42
2022-09-12T03:54:02.157Z,0.80
2022-09-12T03:56:29.673Z,1.10
2022-09-12T03:58:57.713Z,0.70
2022-09-12T04:01:25.079Z,0.75
2022-09-12T04:03:53.009Z,0.80
2022-09-12T04:06:23.062Z,0.63
2022-09-12T04:08:54.761Z,0.70
2022-09-12T04:11:23.310Z,1.08
2022-09-12T04:13:51.162Z,0.77
2022-09-12T04:16:18.957Z,0.70
2022-09-12T04:18:46.746Z,0.90
2022-09-12T04:21:19.449Z,0.90
2022-09-12T04:23:46.797Z,0.95
2022-09-12T04:26:15.002Z,0.80
2022-09-12T04:28:42.762Z,0.70
2022-09-12T04:31:18.200Z,0.80
2022-09-12T04:33:46.608Z,0.90
2022-09-12T04:36:17.144Z,0.95
2022-09-12T04:38:46.296Z,0.90
2022-09-12T04:41:16.276Z,1.05
2022-09-12T04:43:46.610Z,0.70
2022-09-12T04:46:16.155Z,0.82
2022-09-12T04:48:44.288Z,0.90
2022-09-12T04:51:15.869Z,0.77
2022-09-12T04:53:47.914Z,0.85
2022-09-12T04:56:15.551Z,0.75
2022-09-12T04:58:43.010Z,0.82
2022-09-12T05:01:16.400Z,0.80
2022-09-12T05:03:45.145Z,0.90
2022-09-12T05:06:16.357Z,1.23
2022-09-12T05:08:44.157Z,0.90
2022-09-12T05:11:26.559Z,0.70
2022-09-12T05:13:55.714Z,0.77
2022-09-12T05:16:24.382Z,0.77
2022-09-12T05:18:51.903Z,0.73
2022-09-12T05:21:21.311Z,0.65
2022-09-12T05:23:52.232Z,0.90
2022-09-12T05:26:20.735Z,0.63
2022-09-12T05:28:49.562Z,0.80
2022-09-12T05:31:25.469Z,0.90
2022-09-12T05:33:54.598Z,0.77
2022-09-12T05:36:26.797Z,0.63
2022-09-12T05:38:54.310Z,0.70
2022-09-12T05:41:27.490Z,0.80
2022-09-12T05:44:06.455Z,0.75
2022-09-12T05:46:39.607Z,0.50
2022-09-12T05:49:09.942Z,0.60
2022-09-12T05:51:43.341Z,0.47
2022-09-12T05:54:13.444Z,0.60
2022-09-12T05:56:43.086Z,0.85
2022-09-12T05:59:20.219Z,0.70
2022-09-12T06:01:48.838Z,0.60
2022-09-12T06:04:16.460Z,0.50
2022-09-12T06:06:45.453Z,0.73
2022-09-12T06:09:15.259Z,0.50
2022-09-12T06:11:43.824Z,0.50
2022-09-12T06:14:12.813Z,1.15
2022-09-12T06:16:40.983Z,0.70
2022-09-12T06:19:14.860Z,0.70
2022-09-12T06:21:42.636Z,0.50
2022-09-12T06:24:10.464Z,0.60
2022-09-12T06:26:37.891Z,0.40
2022-09-12T06:29:05.627Z,0.60
2022-09-12T06:31:35.723Z,0.63
2022-09-12T06:34:05.448Z,0.70
2022-09-12T06:36:35.114Z,0.80
2022-09-12T06:39:10.038Z,0.57
2022-09-12T06:41:42.968Z,0.40
2022-09-12T06:44:15.047Z,0.60
2022-09-12T06:46:42.723Z,0.47
2022-09-12T06:49:11.056Z,0.40
2022-09-12T06:51:38.550Z,0.45
2022-09-12T06:54:06.321Z,0.50
2022-09-12T06:56:34.274Z,0.32
2022-09-12T06:59:01.568Z,0.30
2022-09-12T07:01:31.238Z,0.30
2022-09-12T07:04:00.767Z,0.40
2022-09-12T07:06:35.659Z,0.30
2022-09-12T07:09:05.893Z,0.40
2022-09-12T07:11:36.657Z,0.35
2022-09-12T07:14:06.511Z,0.50
2022-09-12T07:16:36.826Z,0.40
2022-09-12T07:19:06.166Z,0.50
2022-09-12T07:21:36.625Z,0.40
2022-09-12T07:24:04.092Z,0.28
2022-09-12T07:26:31.559Z,0.40
2022-09-12T07:29:18.757Z,0.40
2022-09-12T07:31:46.943Z,0.50
2022-09-12T07:34:14.304Z,0.35
2022-09-12T07:36:41.569Z,0.50
2022-09-12T07:39:09.777Z,0.55
2022-09-12T07:41:37.069Z,0.40
2022-09-12T07:44:06.763Z,0.50
2022-09-12T07:46:34.226Z,0.40
2022-09-12T07:49:01.897Z,0.40
2022-09-12T07:51:30.867Z,0.63
2022-09-12T07:53:58.744Z,0.73
2022-09-12T07:56:30.668Z,0.40
2022-09-12T07:59:00.102Z,0.57
2022-09-12T08:01:27.825Z,0.32
2022-09-12T08:03:59.782Z,0.50
2022-09-12T08:06:32.220Z,0.40
2022-09-12T08:09:00.429Z,0.40
2022-09-12T08:11:29.478Z,0.40
2022-09-12T08:13:58.196Z,0.52
2022-09-12T08:16:29.735Z,0.40
2022-09-12T08:18:57.901Z,0.47
2022-09-12T08:21:28.112Z,0.40
2022-09-12T08:23:58.635Z,0.43
2022-09-12T08:26:26.194Z,0.35
2022-09-12T08:28:53.855Z,0.60
2022-09-12T08:31:22.947Z,0.43
2022-09-12T08:33:51.032Z,0.40
2022-09-12T08:36:23.791Z,0.30
2022-09-12T08:38:59.345Z,0.30
2022-09-12T08:41:44.421Z,0.52
2022-09-12T08:44:49.349Z,0.47
2022-09-12T08:47:28.248Z,0.43
2022-09-12T08:50:10.547Z,0.40
2022-09-12T08:52:58.704Z,0.40
2022-09-12T08:55:52.263Z,0.60
2022-09-12T08:58:28.363Z,0.32
2022-09-12T09:01:18.738Z,0.55
2022-09-12T09:04:06.593Z,0.45
2022-09-12T09:07:03.942Z,0.30
2022-09-12T09:09:31.243Z,0.30
2022-09-12T09:12:23.866Z,0.40
2022-09-12T09:15:21.476Z,0.35
2022-09-12T09:17:58.849Z,0.40
2022-09-12T09:20:42.590Z,0.40
2022-09-12T09:23:28.386Z,0.30
2022-09-12T09:26:11.520Z,0.38
2022-09-12T09:29:11.534Z,0.40
2022-09-12T09:31:40.406Z,0.40
2022-09-12T09:34:19.073Z,0.30
2022-09-12T09:36:55.870Z,0.50
2022-09-12T09:39:38.585Z,0.40
2022-09-12T09:42:24.759Z,0.40
2022-09-12T09:44:55.095Z,0.30
2022-09-12T09:47:23.041Z,0.30
2022-09-12T09:49:50.365Z,0.40
2022-09-12T09:52:24.503Z,0.40
2022-09-12T09:55:02.088Z,0.30
2022-09-12T09:57:35.478Z,0.50
2022-09-12T10:00:31.703Z,0.30
2022-09-12T10:03:14.323Z,0.20
2022-09-12T10:06:03.002Z,0.43
2022-09-12T10:08:31.627Z,0.30
2022-09-12T10:11:03.472Z,0.30
2022-09-12T10:13:51.486Z,0.20
2022-09-12T10:16:20.542Z,0.30
2022-09-12T10:18:51.143Z,0.40
2022-09-12T10:21:30.821Z,0.30
2022-09-12T10:24:25.442Z,0.30
2022-09-12T10:26:57.219Z,0.30
2022-09-12T10:29:34.473Z,0.45
2022-09-12T10:32:06.260Z,0.30
2022-09-12T10:34:44.298Z,0.25
2022-09-12T10:37:23.402Z,0.30
2022-09-12T10:39:54.650Z,0.20
2022-09-12T10:42:58.698Z,0.30
2022-09-12T10:45:37.889Z,0.30
2022-09-12T10:48:40.856Z,0.45
2022-09-12T10:51:15.482Z,0.40
2022-09-12T10:53:45.670Z,0.38
2022-09-12T10:56:17.277Z,0.30
2022-09-12T10:59:20.218Z,0.28
2022-09-12T11:01:53.829Z,0.30
2022-09-12T11:04:38.041Z,0.20
2022-09-12T11:07:23.648Z,0.30
2022-09-12T11:10:28.042Z,0.20
2022-09-12T11:13:49.666Z,0.30
2022-09-12T11:16:43.089Z,0.30
2022-09-12T11:19:29.302Z,0.20
2022-09-12T11:22:17.112Z,0.30
2022-09-12T11:25:11.199Z,0.30
2022-09-12T11:27:54.818Z,0.28
2022-09-12T11:30:22.322Z,0.40
2022-09-12T11:33:05.958Z,0.40
2022-09-12T11:35:35.276Z,0.60
2022-09-12T11:38:22.382Z,0.40
2022-09-12T11:40:56.314Z,0.50
2022-09-12T11:43:29.515Z,0.30
2022-09-12T11:46:04.408Z,0.30
2022-09-12T11:48:59.405Z,0.40
2022-09-12T11:51:41.435Z,0.30
2022-09-12T11:54:32.655Z,0.55
2022-09-12T11:57:08.840Z,0.30
2022-09-12T12:00:04.345Z,0.20
2022-09-12T12:02:56.027Z,0.75
2022-09-12T12:05:34.271Z,0.50
2022-09-12T12:08:04.912Z,0.30
2022-09-12T12:10:57.187Z,0.30
2022-09-12T12:13:28.562Z,0.43
2022-09-12T12:16:00.947Z,0.30
2022-09-12T12:18:30.319Z,0.28
2022-09-12T12:21:38.384Z,0.22
2022-09-12T12:24:08.676Z,0.30
2022-09-12T12:26:39.017Z,0.30
2022-09-12T12:29:18.596Z,0.30
2022-09-12T12:32:03.859Z,0.43
2022-09-12T12:34:45.763Z,0.30
2022-09-12T12:37:19.262Z,0.43
2022-09-12T12:39:54.081Z,0.50
2022-09-12T12:42:36.568Z,0.70
2022-09-12T12:45:10.011Z,0.43
2022-09-12T12:47:47.652Z,0.40
2022-09-12T12:50:19.659Z,0.50
2022-09-12T12:52:49.736Z,0.50
2022-09-12T12:55:31.365Z,0.57
2022-09-12T12:58:01.142Z,0.40
2022-09-12T13:00:28.497Z,0.30
2022-09-12T13:03:10.854Z,0.40
2022-09-12T13:05:50.587Z,1.50
2022-09-12T13:08:17.856Z,0.20
2022-09-12T13:11:08.333Z,0.30
2022-09-12T13:13:52.080Z,0.30
2022-09-12T13:16:38.699Z,0.30
2022-09-12T13:19:18.395Z,0.30
2022-09-12T13:22:07.131Z,0.20
2022-09-12T13:24:43.853Z,0.20
2022-09-12T13:27:23.418Z,0.38
2022-09-12T13:30:05.493Z,0.45
2022-09-12T13:32:33.187Z,0.20
2022-09-12T13:35:36.122Z,0.45
2022-09-12T13:38:28.428Z,0.30
2022-09-12T13:41:21.403Z,0.30
2022-09-12T13:43:49.542Z,0.30
2022-09-12T13:46:26.852Z,0.20
2022-09-12T13:48:54.567Z,0.28
2022-09-12T13:51:26.293Z,0.30
2022-09-12T13:53:57.539Z,0.30
2022-09-12T13:56:24.887Z,0.30
2022-09-12T13:59:01.271Z,0.40
2022-09-12T14:01:46.072Z,0.20
2022-09-12T14:04:43.581Z,0.20
2022-09-12T14:07:17.269Z,0.22
2022-09-12T14:09:47.277Z,0.20
2022-09-12T14:12:25.344Z,0.30
2022-09-12T14:14:53.508Z,0.40
2022-09-12T14:17:24.075Z,0.60
2022-09-12T14:19:53.993Z,0.60
2022-09-12T14:22:21.433Z,0.30
2022-09-12T14:24:51.810Z,0.43
2022-09-12T14:27:29.231Z,0.30
2022-09-12T14:30:07.566Z,0.30
2022-09-12T14:32:35.750Z,0.38
2022-09-12T14:35:11.971Z,0.60
2022-09-12T14:37:40.649Z,0.40
2022-09-12T14:40:22.351Z,0.30
2022-09-12T14:42:52.723Z,0.17
2022-09-12T14:45:29.265Z,0.28
2022-09-12T14:47:58.762Z,0.20
2022-09-12T14:50:29.683Z,0.30
2022-09-12T14:53:06.320Z,0.30
2022-09-12T14:55:42.256Z,0.30
2022-09-12T14:58:22.659Z,0.20
2022-09-12T15:01:13.148Z,0.20
2022-09-12T15:03:49.808Z,0.30
2022-09-12T15:06:25.595Z,0.20
2022-09-12T15:08:54.970Z,0.30
2022-09-12T15:11:22.863Z,0.30
2022-09-12T15:13:50.336Z,0.35
2022-09-12T15:16:18.352Z,0.30
2022-09-12T15:18:45.592Z,0.30
2022-09-12T15:21:17.411Z,0.40
2022-09-12T15:23:47.627Z,0.28
2022-09-12T15:26:18.375Z,0.60
2022-09-12T15:28:46.194Z,0.30
2022-09-12T15:31:27.005Z,0.30
2022-09-12T15:33:55.687Z,0.20
2022-09-12T15:36:24.398Z,0.47
2022-09-12T15:38:52.411Z,0.82
2022-09-12T15:41:31.040Z,0.30
2022-09-12T15:43:59.335Z,0.30
2022-09-12T15:46:26.618Z,0.30
2022-09-12T15:48:53.914Z,0.30
2022-09-12T15:51:22.279Z,0.40
2022-09-12T15:53:50.975Z,0.20
2022-09-12T15:56:21.234Z,0.40
2022-09-12T15:58:58.872Z,0.20
2022-09-12T16:01:28.467Z,0.20
2022-09-12T16:03:55.848Z,0.30
2022-09-12T16:06:23.616Z,0.22
2022-09-12T16:08:51.203Z,0.25
2022-09-12T16:11:22.014Z,0.30
2022-09-12T16:13:49.732Z,0.20
2022-09-12T16:16:16.991Z,0.30
2022-09-12T16:18:44.364Z,0.20
2022-09-12T16:21:15.228Z,0.38
2022-09-12T16:23:47.120Z,0.20
2022-09-12T16:26:15.201Z,0.10
2022-09-12T16:28:42.862Z,0.40
2022-09-12T16:31:13.128Z,0.43
2022-09-12T16:33:41.040Z,0.20
2022-09-12T16:36:11.305Z,0.30
2022-09-12T16:38:43.188Z,0.20
2022-09-12T16:41:11.348Z,0.30
2022-09-12T16:43:39.242Z,0.22
2022-09-12T16:46:19.109Z,0.20
2022-09-12T16:48:52.685Z,0.20
2022-09-12T16:51:26.719Z,0.20
2022-09-12T16:53:55.229Z,0.20
2022-09-12T16:56:23.271Z,0.20
2022-09-12T16:58:51.537Z,0.28
2022-09-12T17:01:21.493Z,0.20
2022-09-12T17:03:53.218Z,0.22
2022-09-12T17:06:21.070Z,0.10
2022-09-12T17:08:51.887Z,0.20
2022-09-12T17:11:29.692Z,0.20
2022-09-12T17:14:06.745Z,0.20
2022-09-12T17:16:36.673Z,0.25
2022-09-12T17:19:05.304Z,0.20
2022-09-12T17:21:33.153Z,0.25
2022-09-12T17:24:00.424Z,0.10
2022-09-12T17:26:27.775Z,0.30
2022-09-12T17:28:55.011Z,0.20
2022-09-12T17:31:22.341Z,0.20
2022-09-12T17:33:50.072Z,0.30
2022-09-12T17:36:18.324Z,0.20
2022-09-12T17:38:46.376Z,0.30
2022-09-12T17:41:17.404Z,0.20
2022-09-12T17:43:50.936Z,0.30
2022-09-12T17:46:22.270Z,0.40
2022-09-12T17:48:53.840Z,0.20
2022-09-12T17:51:22.517Z,0.30
2022-09-12T17:53:50.319Z,0.20
2022-09-12T17:56:17.636Z,0.30
2022-09-12T17:58:45.021Z,0.25
2022-09-12T18:01:33.246Z,0.30
2022-09-12T18:04:01.443Z,0.25
2022-09-12T18:06:30.114Z,0.30
2022-09-12T18:09:02.498Z,0.30
2022-09-12T18:11:30.108Z,0.30
2022-09-12T18:13:59.382Z,0.28
2022-09-12T18:16:28.623Z,0.30
2022-09-12T18:18:56.495Z,0.40
2022-09-12T18:21:23.794Z,0.30
2022-09-12T18:23:51.082Z,0.50
2022-09-12T18:26:18.951Z,0.40
2022-09-12T18:28:46.679Z,0.40
2022-09-12T18:31:16.971Z,0.40
2022-09-12T18:33:44.683Z,0.30
2022-09-12T18:36:13.588Z,0.30
2022-09-12T18:38:41.690Z,0.30
2022-09-12T18:41:14.055Z,0.30
2022-09-12T18:43:41.713Z,0.50
2022-09-12T18:46:15.359Z,0.30
2022-09-12T18:48:45.024Z,0.30
2022-09-12T18:51:17.986Z,0.40
2022-09-12T18:53:59.399Z,0.50
2022-09-12T18:56:32.311Z,0.40
2022-09-12T18:59:00.998Z,0.40
2022-09-12T19:01:38.358Z,0.60
2022-09-12T19:04:08.085Z,0.40
2022-09-12T19:06:41.319Z,0.40
2022-09-12T19:09:09.717Z,0.43
2022-09-12T19:11:39.248Z,0.43
2022-09-12T19:14:07.676Z,0.50
2022-09-12T19:16:35.789Z,0.52
2022-09-12T19:19:03.232Z,0.30
2022-09-12T19:21:31.503Z,0.40
2022-09-12T19:24:05.433Z,0.20
2022-09-12T19:26:33.893Z,0.30
2022-09-12T19:29:03.015Z,0.30
2022-09-12T19:31:31.086Z,0.30
2022-09-12T19:34:06.272Z,0.30
2022-09-12T19:36:44.789Z,0.28
2022-09-12T19:39:13.099Z,0.20
2022-09-12T19:41:40.284Z,0.17
2022-09-12T19:44:07.531Z,0.38
2022-09-12T19:46:35.011Z,0.30
2022-09-12T19:49:02.494Z,0.30
2022-09-12T19:51:29.825Z,0.30
2022-09-12T19:53:57.212Z,0.30
2022-09-12T19:56:24.523Z,0.30
2022-09-12T19:58:56.159Z,0.40
2022-09-12T20:01:28.321Z,0.20
2022-09-12T20:03:57.774Z,0.40
2022-09-12T20:06:25.791Z,0.30
2022-09-12T20:08:53.379Z,0.28
2022-09-12T20:11:22.136Z,0.40
2022-09-12T20:13:49.520Z,0.50
2022-09-12T20:16:25.731Z,0.40
2022-09-12T20:18:56.576Z,0.38
2022-09-12T20:21:25.788Z,0.40
2022-09-12T20:23:53.260Z,0.35
2022-09-12T20:26:20.690Z,0.40
2022-09-12T20:28:48.352Z,0.30
2022-09-12T20:31:16.634Z,0.30
2022-09-12T20:33:48.632Z,0.40
2022-09-12T20:36:20.719Z,0.40
2022-09-12T20:38:53.156Z,0.50
2022-09-12T20:41:21.370Z,0.50
2022-09-12T20:43:53.245Z,0.65
2022-09-12T20:46:22.477Z,0.60
2022-09-12T20:48:50.954Z,0.60
2022-09-12T20:51:19.295Z,0.52
2022-09-12T20:53:47.191Z,0.70
2022-09-12T20:56:15.240Z,0.50
2022-09-12T20:58:44.347Z,0.65
2022-09-12T21:01:13.977Z,0.60
2022-09-12T21:03:42.599Z,0.60
2022-09-12T21:06:12.670Z,0.63
2022-09-12T21:08:40.555Z,0.60
2022-09-12T21:11:08.007Z,0.60
2022-09-12T21:13:36.156Z,0.50
2022-09-12T21:16:11.236Z,0.60
2022-09-12T21:18:39.258Z,0.57
2022-09-12T21:21:07.052Z,0.50
2022-09-12T21:23:34.796Z,0.77
2022-09-12T21:26:03.324Z,0.50
2022-09-12T21:28:31.145Z,0.80
2022-09-12T21:30:58.761Z,0.63
2022-09-12T21:33:26.180Z,0.60
2022-09-12T21:35:53.481Z,0.70
2022-09-12T21:38:21.127Z,0.63
2022-09-12T21:40:48.560Z,0.60
2022-09-12T21:43:15.900Z,0.50
2022-09-12T21:45:43.180Z,0.68
2022-09-12T21:48:10.643Z,0.50
2022-09-12T21:50:37.890Z,0.70
2022-09-12T21:53:05.112Z,0.80
2022-09-12T21:55:32.343Z,0.60
2022-09-12T21:57:59.605Z,0.50
2022-09-12T22:00:26.867Z,0.60
2022-09-12T22:02:54.123Z,0.50
2022-09-12T22:05:24.720Z,0.70
2022-09-12T22:07:52.617Z,0.70
2022-09-12T22:10:19.868Z,0.68
2022-09-12T22:12:47.316Z,0.95
2022-09-12T22:15:39.399Z,0.70
2022-09-12T22:18:02.240Z,0.95
2022-09-12T22:20:29.495Z,0.90
2022-09-12T22:23:15.364Z,0.88
2022-09-12T22:25:42.761Z,0.70
2022-09-12T22:28:10.437Z,0.70
2022-09-12T22:30:38.729Z,0.70
2022-09-12T22:33:06.070Z,0.77
2022-09-12T22:35:33.373Z,0.65
2022-09-12T22:38:00.676Z,0.80
2022-09-12T22:40:27.911Z,0.70
2022-09-12T22:42:55.202Z,0.77
2022-09-12T22:45:22.838Z,0.70
2022-09-12T22:47:50.135Z,0.90
2022-09-12T22:50:17.503Z,0.70
2022-09-12T22:52:44.767Z,0.80
2022-09-12T22:55:12.120Z,0.70
2022-09-12T22:57:39.783Z,0.70
2022-09-12T23:00:10.600Z,0.68
2022-09-12T23:02:38.230Z,0.70
2022-09-12T23:05:06.240Z,0.70
2022-09-12T23:07:33.774Z,0.80
2022-09-12T23:10:01.045Z,0.70
2022-09-12T23:12:28.461Z,0.75
2022-09-12T23:14:57.440Z,0.80
2022-09-12T23:17:24.696Z,0.80
2022-09-12T23:19:52.654Z,0.70
2022-09-12T23:22:19.994Z,0.70
2022-09-12T23:24:47.315Z,0.80
2022-09-12T23:27:14.585Z,0.80
2022-09-12T23:29:41.809Z,0.60
2022-09-12T23:32:09.101Z,0.70
2022-09-12T23:34:36.414Z,0.70
2022-09-12T23:37:03.741Z,0.80
2022-09-12T23:39:31.886Z,0.98
2022-09-12T23:41:59.132Z,0.80
2022-09-12T23:44:26.606Z,0.80
2022-09-12T23:46:53.901Z,0.95
2022-09-12T23:49:21.154Z,0.70
2022-09-12T23:51:48.358Z,0.88
2022-09-12T23:54:15.631Z,0.90
2022-09-12T23:56:42.924Z,0.90
2022-09-12T23:59:10.182Z,1.05
